createdAt,value
2023-01-12T00:04:16.136Z,1007.66
2023-01-12T00:10:39.006Z,1007.64
2023-01-12T00:16:59.018Z,1007.62
2023-01-12T00:23:22.020Z,1007.62
2023-01-12T00:29:42.005Z,1007.62
2023-01-12T00:36:05.017Z,1007.58
2023-01-12T00:42:24.994Z,1007.56
2023-01-12T00:48:48.016Z,1007.64
2023-01-12T00:55:08.110Z,1007.6
2023-01-12T01:01:31.163Z,1007.6
2023-01-12T01:07:50.993Z,1007.51
2023-01-12T01:14:14.011Z,1007.49
2023-01-12T01:20:34.042Z,1007.45
2023-01-12T01:26:57.008Z,1007.45
2023-01-12T01:33:17.007Z,1007.49
2023-01-12T01:39:39.987Z,1007.51
2023-01-12T01:45:59.992Z,1007.52
2023-01-12T01:52:23.024Z,1007.43
2023-01-12T01:58:43.025Z,1007.31
2023-01-12T02:05:05.987Z,1007.25
2023-01-12T02:11:26.003Z,1007.17
2023-01-12T02:17:48.976Z,1007.15
2023-01-12T02:24:09.002Z,1007.12
2023-01-12T02:30:32.023Z,1007
2023-01-12T02:36:52.008Z,1006.9
2023-01-12T02:43:14.997Z,1006.84
2023-01-12T02:49:35.027Z,1006.74
2023-01-12T02:55:57.986Z,1006.7
2023-01-12T03:02:18.050Z,1006.63
2023-01-12T03:08:41.031Z,1006.59
2023-01-12T03:15:01.014Z,1006.59
2023-01-12T03:21:23.975Z,1006.55
2023-01-12T03:27:44.026Z,1006.47
2023-01-12T03:34:06.995Z,1006.45
2023-01-12T03:40:27.052Z,1006.31
2023-01-12T03:46:50.124Z,1006.29
2023-01-12T03:53:10.003Z,1006.23
2023-01-12T03:59:32.994Z,1006.14
2023-01-12T04:05:53.077Z,1006.06
2023-01-12T04:12:15.984Z,1006.04
2023-01-12T04:18:36.007Z,1005.98
2023-01-12T04:35:04.016Z,1005.76
2023-01-12T04:41:23.966Z,1005.72
2023-01-12T04:47:47.006Z,1005.69
2023-01-12T04:54:06.993Z,1005.55
2023-01-12T05:00:30.032Z,1005.4
2023-01-12T05:06:49.978Z,1005.31
2023-01-12T05:13:13.008Z,1005.23
2023-01-12T05:19:33.000Z,1005.13
2023-01-12T05:25:56.018Z,1005.03
2023-01-12T05:32:16.053Z,1004.95
2023-01-12T05:38:38.982Z,1004.78
2023-01-12T05:44:58.981Z,1004.62
2023-01-12T05:51:22.043Z,1004.5
2023-01-12T05:57:42.003Z,1004.39
2023-01-12T06:04:09.821Z,1004.25
2023-01-12T06:10:33.981Z,1004.15
2023-01-12T06:17:11.992Z,1004.05
2023-01-12T06:23:35.042Z,1004.05
2023-01-12T06:29:55.008Z,1004.11
2023-01-12T06:36:14.987Z,1004.09
2023-01-12T06:42:38.179Z,1004.11
2023-01-12T06:48:58.041Z,1004.03
2023-01-12T06:55:21.047Z,1004
2023-01-12T07:01:41.125Z,1003.96
2023-01-12T07:08:04.029Z,1003.92
2023-01-12T07:14:24.004Z,1003.84
2023-01-12T07:20:47.008Z,1003.78
2023-01-12T07:27:07.044Z,1003.72
2023-01-12T07:33:29.988Z,1003.72
2023-01-12T07:39:50.024Z,1003.74
2023-01-12T07:46:13.185Z,1003.64
2023-01-12T07:52:32.983Z,1003.54
2023-01-12T07:58:56.065Z,1003.53
2023-01-12T08:05:16.081Z,1003.51
2023-01-12T08:11:39.004Z,1003.51
2023-01-12T08:17:59.008Z,1003.53
2023-01-12T08:24:22.090Z,1003.53
2023-01-12T08:30:42.045Z,1003.54
2023-01-12T08:37:05.006Z,1003.6
2023-01-12T08:43:25.005Z,1003.6
2023-01-12T08:49:48.020Z,1003.58
2023-01-12T08:56:07.989Z,1003.56
2023-01-12T09:02:31.055Z,1003.58
2023-01-12T09:08:51.005Z,1003.6
2023-01-12T09:15:13.986Z,1003.62
2023-01-12T09:21:34.038Z,1003.62
2023-01-12T09:45:33.072Z,1003.9
2023-01-12T09:51:55.990Z,1003.92
2023-01-12T09:58:16.235Z,1003.94
2023-01-12T10:04:39.330Z,1003.94
2023-01-12T10:11:00.027Z,1003.94
2023-01-12T10:17:23.037Z,1003.96
2023-01-12T10:23:43.004Z,1004
2023-01-12T10:30:05.993Z,1004.01
2023-01-12T10:36:25.970Z,1004.01
2023-01-12T10:42:49.047Z,1004
2023-01-12T10:49:08.991Z,1004.01
2023-01-12T10:55:32.008Z,1004.03
2023-01-12T11:01:52.193Z,1004.03
2023-01-12T11:08:15.003Z,1004.03
2023-01-12T11:14:35.004Z,1004
2023-01-12T11:20:58.031Z,1003.98
2023-01-12T11:27:18.008Z,1003.96
2023-01-12T11:33:41.021Z,1003.92
2023-01-12T11:40:01.018Z,1003.86
2023-01-12T11:46:24.051Z,1003.8
2023-01-12T11:52:43.994Z,1003.74
2023-01-12T11:59:07.074Z,1003.66
2023-01-12T12:05:27.030Z,1003.64
2023-01-12T12:11:50.032Z,1003.58
2023-01-12T12:18:10.046Z,1003.58
2023-01-12T12:24:33.011Z,1003.54
2023-01-12T12:30:53.047Z,1003.54
2023-01-12T12:37:16.040Z,1003.54
2023-01-12T12:43:35.996Z,1003.54
2023-01-12T12:49:58.990Z,1003.54
2023-01-12T12:56:19.025Z,1003.51
2023-01-12T13:02:42.052Z,1003.51
2023-01-12T13:09:02.244Z,1003.49
2023-01-12T13:15:25.319Z,1003.47
2023-01-12T13:21:44.997Z,1003.47
2023-01-12T13:28:08.001Z,1003.45
2023-01-12T13:34:28.014Z,1003.43
2023-01-12T13:40:55.404Z,1003.41
2023-01-12T13:47:10.987Z,1003.37
2023-01-12T13:53:34.036Z,1003.31
2023-01-12T13:59:54.012Z,1003.35
2023-01-12T14:06:16.998Z,1003.37
2023-01-12T14:12:37.048Z,1003.37
2023-01-12T14:19:00.067Z,1003.35
2023-01-12T14:25:20.126Z,1003.35
2023-01-12T14:31:43.044Z,1003.35
2023-01-12T14:38:02.976Z,1003.33
2023-01-12T15:01:45.075Z,1003.17
2023-01-12T15:08:07.995Z,1003.11
2023-01-12T15:14:28.015Z,1003.02
2023-01-12T15:20:51.048Z,1003
2023-01-12T15:27:11.001Z,1002.94
2023-01-12T15:33:33.996Z,1002.81
2023-01-12T15:39:54.033Z,1002.72
2023-01-12T15:46:17.007Z,1002.76
2023-01-12T15:52:37.012Z,1002.79
2023-01-12T15:59:00.174Z,1002.77
2023-01-12T16:05:20.055Z,1002.76
2023-01-12T16:11:43.206Z,1002.68
2023-01-12T16:17:32.008Z,1002.62
2023-01-12T16:23:51.987Z,1002.64
2023-01-12T16:30:15.039Z,1002.7
2023-01-12T16:36:35.008Z,1002.72
2023-01-12T16:42:58.027Z,1002.66
2023-01-12T16:49:18.003Z,1002.68
2023-01-12T16:55:41.018Z,1002.64
2023-01-12T17:02:01.207Z,1002.58
2023-01-12T17:08:23.987Z,1002.52
2023-01-12T17:14:44.045Z,1002.44
2023-01-12T17:21:06.996Z,1002.4
2023-01-12T17:27:26.978Z,1002.34
2023-01-12T17:33:50.068Z,1002.38
2023-01-12T17:40:09.993Z,1002.44
2023-01-12T17:46:33.236Z,1002.46
2023-01-12T17:52:53.243Z,1002.54
2023-01-12T17:59:15.987Z,1002.48
2023-01-12T18:05:36.003Z,1002.48
2023-01-12T18:11:59.030Z,1002.46
2023-01-12T18:18:19.019Z,1002.46
2023-01-12T18:24:42.000Z,1002.46
2023-01-12T18:31:02.044Z,1002.48
2023-01-12T18:37:24.992Z,1002.48
2023-01-12T18:43:44.996Z,1002.4
2023-01-12T18:50:08.031Z,1002.38
2023-01-12T18:56:28.008Z,1002.36
2023-01-12T19:02:51.098Z,1002.34
2023-01-12T19:09:11.031Z,1002.32
2023-01-12T19:15:33.981Z,1002.27
2023-01-12T19:21:53.989Z,1002.23
2023-01-12T19:28:17.017Z,1002.23
2023-01-12T19:34:37.039Z,1002.21
2023-01-12T19:41:00.006Z,1002.17
2023-01-12T19:47:20.009Z,1002.13
2023-01-12T19:53:43.021Z,1002.07
2023-01-12T20:00:02.984Z,1002.05
2023-01-12T20:06:26.043Z,1002.03
2023-01-12T20:12:45.993Z,1002.07
2023-01-12T20:19:08.986Z,1001.95
2023-01-12T20:25:29.043Z,1001.83
2023-01-12T20:31:52.048Z,1001.76
2023-01-12T20:38:12.020Z,1001.66
2023-01-12T20:44:35.041Z,1001.62
2023-01-12T20:50:55.000Z,1001.58
2023-01-12T20:57:18.071Z,1001.56
2023-01-12T21:03:38.070Z,1001.5
2023-01-12T21:10:00.977Z,1001.54
2023-01-12T21:16:21.077Z,1001.5
2023-01-12T21:22:44.019Z,1001.5
2023-01-12T21:47:14.523Z,1001.36
2023-01-12T21:53:34.005Z,1001.35
2023-01-12T21:59:56.997Z,1001.4
2023-01-12T22:06:17.025Z,1001.42
2023-01-12T22:12:40.008Z,1001.4
2023-01-12T22:18:59.986Z,1001.38
2023-01-12T22:25:23.030Z,1001.35
2023-01-12T22:31:43.033Z,1001.36
2023-01-12T22:38:06.015Z,1001.36
2023-01-12T22:44:26.020Z,1001.35
2023-01-12T22:50:49.005Z,1001.33
2023-01-12T22:57:08.993Z,1001.35
2023-01-12T23:20:07.078Z,1001.35
2023-01-12T23:26:27.052Z,1001.33
2023-01-12T23:32:50.082Z,1001.31
2023-01-12T23:39:10.082Z,1001.29
2023-01-12T23:45:33.083Z,1001.21
2023-01-12T23:51:54.101Z,1001.13
2023-01-12T23:58:18.102Z,1001.05
